sensor_id;sensor_type;location;lat;lon;timestamp;temperature;humidity
21805;DHT22;11064;47.102;15.452;2023-06-19T04:03:13;19.40;99.90
21805;DHT22;11064;47.102;15.452;2023-06-19T04:05:39;20.30;99.90
21805;DHT22;11064;47.102;15.452;2023-06-19T04:08:07;20.90;99.90
21805;DHT22;11064;47.102;15.452;2023-06-19T04:10:33;21.70;99.50
21805;DHT22;11064;47.102;15.452;2023-06-19T04:12:58;22.10;96.00
21805;DHT22;11064;47.102;15.452;2023-06-19T04:15:24;22.80;93.70
21805;DHT22;11064;47.102;15.452;2023-06-19T04:17:50;22.80;91.90
21805;DHT22;11064;47.102;15.452;2023-06-19T04:20:16;23.30;90.10
21805;DHT22;11064;47.102;15.452;2023-06-19T04:22:42;23.40;89.10
21805;DHT22;11064;47.102;15.452;2023-06-19T04:25:09;23.50;86.80
21805;DHT22;11064;47.102;15.452;2023-06-19T04:27:36;23.70;85.90
21805;DHT22;11064;47.102;15.452;2023-06-19T04:30:05;23.90;83.60
21805;DHT22;11064;47.102;15.452;2023-06-19T04:32:32;23.40;85.10
21805;DHT22;11064;47.102;15.452;2023-06-19T04:34:58;23.60;84.30
21805;DHT22;11064;47.102;15.452;2023-06-19T04:37:24;23.80;81.70
21805;DHT22;11064;47.102;15.452;2023-06-19T04:39:50;24.40;79.50
21805;DHT22;11064;47.102;15.452;2023-06-19T04:42:17;24.50;78.50
21805;DHT22;11064;47.102;15.452;2023-06-19T04:44:48;24.60;77.30
21805;DHT22;11064;47.102;15.452;2023-06-19T04:47:19;24.80;75.60
21805;DHT22;11064;47.102;15.452;2023-06-19T04:49:45;24.70;75.20
21805;DHT22;11064;47.102;15.452;2023-06-19T04:52:11;24.40;76.30
21805;DHT22;11064;47.102;15.452;2023-06-19T04:54:37;24.40;76.10
21805;DHT22;11064;47.102;15.452;2023-06-19T04:57:04;24.50;75.30
21805;DHT22;11064;47.102;15.452;2023-06-19T04:59:30;24.00;76.70
21805;DHT22;11064;47.102;15.452;2023-06-19T05:01:57;24.10;77.30
21805;DHT22;11064;47.102;15.452;2023-06-19T05:04:24;24.60;74.80
21805;DHT22;11064;47.102;15.452;2023-06-19T05:06:50;25.70;71.20
21805;DHT22;11064;47.102;15.452;2023-06-19T05:09:16;25.90;70.00
21805;DHT22;11064;47.102;15.452;2023-06-19T05:11:42;26.40;68.80
21805;DHT22;11064;47.102;15.452;2023-06-19T05:14:08;26.60;67.20
21805;DHT22;11064;47.102;15.452;2023-06-19T05:16:34;27.90;65.10
21805;DHT22;11064;47.102;15.452;2023-06-19T05:19:00;28.20;61.00
21805;DHT22;11064;47.102;15.452;2023-06-19T05:21:26;28.10;61.40
21805;DHT22;11064;47.102;15.452;2023-06-19T05:23:52;27.50;60.40
21805;DHT22;11064;47.102;15.452;2023-06-19T05:26:21;28.40;61.10
21805;DHT22;11064;47.102;15.452;2023-06-19T05:28:49;28.80;59.30
21805;DHT22;11064;47.102;15.452;2023-06-19T05:31:15;29.70;57.30
21805;DHT22;11064;47.102;15.452;2023-06-19T05:33:41;30.00;55.70
21805;DHT22;11064;47.102;15.452;2023-06-19T05:36:07;30.40;53.70
21805;DHT22;11064;47.102;15.452;2023-06-19T05:38:33;31.60;53.40
21805;DHT22;11064;47.102;15.452;2023-06-19T05:40:59;32.60;51.00
21805;DHT22;11064;47.102;15.452;2023-06-19T05:43:26;32.90;49.60
21805;DHT22;11064;47.102;15.452;2023-06-19T05:45:54;32.20;49.60
21805;DHT22;11064;47.102;15.452;2023-06-19T05:48:25;31.60;50.60
21805;DHT22;11064;47.102;15.452;2023-06-19T05:50:51;29.60;53.00
21805;DHT22;11064;47.102;15.452;2023-06-19T05:53:17;29.60;54.90
21805;DHT22;11064;47.102;15.452;2023-06-19T05:55:43;30.10;54.20
21805;DHT22;11064;47.102;15.452;2023-06-19T05:58:09;30.10;53.70
21805;DHT22;11064;47.102;15.452;2023-06-19T06:00:35;30.20;52.60
21805;DHT22;11064;47.102;15.452;2023-06-19T06:03:01;30.90;52.10
21805;DHT22;11064;47.102;15.452;2023-06-19T06:05:28;29.70;52.60
21805;DHT22;11064;47.102;15.452;2023-06-19T06:07:54;30.40;53.30
21805;DHT22;11064;47.102;15.452;2023-06-19T06:10:21;29.90;52.50
21805;DHT22;11064;47.102;15.452;2023-06-19T06:12:48;29.30;54.30
21805;DHT22;11064;47.102;15.452;2023-06-19T06:15:15;28.80;55.80
21805;DHT22;11064;47.102;15.452;2023-06-19T06:17:41;28.40;57.00
21805;DHT22;11064;47.102;15.452;2023-06-19T06:20:07;29.40;56.20
21805;DHT22;11064;47.102;15.452;2023-06-19T06:22:40;29.60;56.00
21805;DHT22;11064;47.102;15.452;2023-06-19T06:25:06;29.70;55.00
21805;DHT22;11064;47.102;15.452;2023-06-19T06:27:33;30.30;53.80
21805;DHT22;11064;47.102;15.452;2023-06-19T06:29:59;29.90;55.20
21805;DHT22;11064;47.102;15.452;2023-06-19T06:32:26;28.90;55.50
21805;DHT22;11064;47.102;15.452;2023-06-19T06:34:54;27.70;58.10
21805;DHT22;11064;47.102;15.452;2023-06-19T06:37:20;28.00;58.20
21805;DHT22;11064;47.102;15.452;2023-06-19T06:39:49;27.20;58.90
21805;DHT22;11064;47.102;15.452;2023-06-19T06:42:17;26.20;63.60
21805;DHT22;11064;47.102;15.452;2023-06-19T06:44:44;25.80;67.10
21805;DHT22;11064;47.102;15.452;2023-06-19T06:47:10;24.70;70.30
21805;DHT22;11064;47.102;15.452;2023-06-19T06:49:36;24.20;74.00
21805;DHT22;11064;47.102;15.452;2023-06-19T06:52:03;23.80;76.40
21805;DHT22;11064;47.102;15.452;2023-06-19T06:54:31;23.50;76.30
21805;DHT22;11064;47.102;15.452;2023-06-19T06:56:57;23.50;77.50
21805;DHT22;11064;47.102;15.452;2023-06-19T06:59:27;23.50;77.50
21805;DHT22;11064;47.102;15.452;2023-06-19T07:01:56;23.60;77.50
21805;DHT22;11064;47.102;15.452;2023-06-19T07:04:22;23.70;77.00
21805;DHT22;11064;47.102;15.452;2023-06-19T07:06:49;23.70;78.00
21805;DHT22;11064;47.102;15.452;2023-06-19T07:09:15;24.30;78.40
21805;DHT22;11064;47.102;15.452;2023-06-19T07:11:40;24.30;77.90
21805;DHT22;11064;47.102;15.452;2023-06-19T07:14:06;24.50;80.50
21805;DHT22;11064;47.102;15.452;2023-06-19T07:16:32;24.70;77.90
21805;DHT22;11064;47.102;15.452;2023-06-19T07:18:58;24.90;79.80
21805;DHT22;11064;47.102;15.452;2023-06-19T07:21:24;25.10;78.40
21805;DHT22;11064;47.102;15.452;2023-06-19T07:23:51;25.40;78.50
21805;DHT22;11064;47.102;15.452;2023-06-19T07:26:17;25.50;76.20
21805;DHT22;11064;47.102;15.452;2023-06-19T07:28:43;25.80;77.20
21805;DHT22;11064;47.102;15.452;2023-06-19T07:31:09;26.10;78.50
21805;DHT22;11064;47.102;15.452;2023-06-19T07:33:34;25.90;74.60
21805;DHT22;11064;47.102;15.452;2023-06-19T07:36:01;26.20;76.70
21805;DHT22;11064;47.102;15.452;2023-06-19T07:38:28;26.40;75.60
21805;DHT22;11064;47.102;15.452;2023-06-19T07:40:53;26.40;73.60
21805;DHT22;11064;47.102;15.452;2023-06-19T07:43:19;26.60;75.60
21805;DHT22;11064;47.102;15.452;2023-06-19T07:45:48;26.40;74.10
21805;DHT22;11064;47.102;15.452;2023-06-19T07:48:14;26.40;69.10
21805;DHT22;11064;47.102;15.452;2023-06-19T07:50:40;26.30;70.30
21805;DHT22;11064;47.102;15.452;2023-06-19T07:53:06;26.40;70.00
21805;DHT22;11064;47.102;15.452;2023-06-19T07:55:32;26.40;71.50
21805;DHT22;11064;47.102;15.452;2023-06-19T07:58:00;26.40;72.90
21805;DHT22;11064;47.102;15.452;2023-06-19T08:00:27;26.40;71.00
21805;DHT22;11064;47.102;15.452;2023-06-19T08:02:53;26.60;70.60
21805;DHT22;11064;47.102;15.452;2023-06-19T08:05:18;26.80;68.70
21805;DHT22;11064;47.102;15.452;2023-06-19T08:07:44;27.10;68.60
21805;DHT22;11064;47.102;15.452;2023-06-19T08:10:10;26.70;66.00
21805;DHT22;11064;47.102;15.452;2023-06-19T08:12:36;26.80;69.50
21805;DHT22;11064;47.102;15.452;2023-06-19T08:15:02;26.90;70.60
21805;DHT22;11064;47.102;15.452;2023-06-19T08:17:28;26.90;69.60
21805;DHT22;11064;47.102;15.452;2023-06-19T08:19:54;27.00;69.30
21805;DHT22;11064;47.102;15.452;2023-06-19T08:22:20;27.00;69.70
21805;DHT22;11064;47.102;15.452;2023-06-19T08:24:47;26.90;67.40
21805;DHT22;11064;47.102;15.452;2023-06-19T08:27:12;26.90;70.30
21805;DHT22;11064;47.102;15.452;2023-06-19T08:29:38;27.20;67.50
21805;DHT22;11064;47.102;15.452;2023-06-19T08:32:05;27.10;65.20
21805;DHT22;11064;47.102;15.452;2023-06-19T08:34:31;27.30;69.40
21805;DHT22;11064;47.102;15.452;2023-06-19T08:36:57;27.20;66.90
21805;DHT22;11064;47.102;15.452;2023-06-19T08:39:23;27.30;65.00
21805;DHT22;11064;47.102;15.452;2023-06-19T08:41:48;27.30;64.20
21805;DHT22;11064;47.102;15.452;2023-06-19T08:44:14;27.30;64.70
21805;DHT22;11064;47.102;15.452;2023-06-19T08:46:40;27.40;66.50
21805;DHT22;11064;47.102;15.452;2023-06-19T08:49:08;27.60;70.10
21805;DHT22;11064;47.102;15.452;2023-06-19T08:51:36;27.90;67.40
21805;DHT22;11064;47.102;15.452;2023-06-19T08:54:04;27.90;66.50
21805;DHT22;11064;47.102;15.452;2023-06-19T08:56:31;27.90;66.40
21805;DHT22;11064;47.102;15.452;2023-06-19T08:59:15;28.00;65.80
21805;DHT22;11064;47.102;15.452;2023-06-19T09:01:51;27.90;67.50
21805;DHT22;11064;47.102;15.452;2023-06-19T09:04:19;28.00;67.40
21805;DHT22;11064;47.102;15.452;2023-06-19T09:06:50;28.10;66.90
21805;DHT22;11064;47.102;15.452;2023-06-19T09:09:18;28.20;64.60
21805;DHT22;11064;47.102;15.452;2023-06-19T09:12:00;28.10;65.50
21805;DHT22;11064;47.102;15.452;2023-06-19T09:14:37;28.30;70.00
21805;DHT22;11064;47.102;15.452;2023-06-19T09:17:04;28.70;69.20
21805;DHT22;11064;47.102;15.452;2023-06-19T09:19:30;28.70;66.70
21805;DHT22;11064;47.102;15.452;2023-06-19T09:22:05;28.80;67.50
21805;DHT22;11064;47.102;15.452;2023-06-19T09:24:36;28.80;67.20
21805;DHT22;11064;47.102;15.452;2023-06-19T09:27:10;28.60;63.00
21805;DHT22;11064;47.102;15.452;2023-06-19T09:29:44;28.50;64.30
21805;DHT22;11064;47.102;15.452;2023-06-19T09:32:24;28.50;63.60
21805;DHT22;11064;47.102;15.452;2023-06-19T09:34:52;28.50;63.10
21805;DHT22;11064;47.102;15.452;2023-06-19T09:37:29;28.40;62.30
21805;DHT22;11064;47.102;15.452;2023-06-19T09:40:00;28.30;65.50
21805;DHT22;11064;47.102;15.452;2023-06-19T09:42:32;28.30;66.70
21805;DHT22;11064;47.102;15.452;2023-06-19T09:45:01;28.30;67.00
21805;DHT22;11064;47.102;15.452;2023-06-19T09:47:37;28.20;66.00
21805;DHT22;11064;47.102;15.452;2023-06-19T09:50:04;28.40;67.00
21805;DHT22;11064;47.102;15.452;2023-06-19T09:52:30;28.50;68.50
21805;DHT22;11064;47.102;15.452;2023-06-19T09:54:56;28.40;66.40
21805;DHT22;11064;47.102;15.452;2023-06-19T09:57:25;28.70;70.00
21805;DHT22;11064;47.102;15.452;2023-06-19T09:59:54;28.90;66.90
21805;DHT22;11064;47.102;15.452;2023-06-19T10:02:23;29.20;65.60
21805;DHT22;11064;47.102;15.452;2023-06-19T10:04:52;29.40;68.90
21805;DHT22;11064;47.102;15.452;2023-06-19T10:07:22;29.50;66.80
21805;DHT22;11064;47.102;15.452;2023-06-19T10:10:04;29.80;66.30
21805;DHT22;11064;47.102;15.452;2023-06-19T10:12:45;29.90;68.00
21805;DHT22;11064;47.102;15.452;2023-06-19T10:15:22;30.10;64.50
21805;DHT22;11064;47.102;15.452;2023-06-19T10:17:59;30.40;65.20
21805;DHT22;11064;47.102;15.452;2023-06-19T10:20:30;30.70;65.90
21805;DHT22;11064;47.102;15.452;2023-06-19T10:23:03;30.80;63.00
21805;DHT22;11064;47.102;15.452;2023-06-19T10:25:35;30.70;61.90
21805;DHT22;11064;47.102;15.452;2023-06-19T10:28:02;30.80;63.60
21805;DHT22;11064;47.102;15.452;2023-06-19T10:30:31;30.60;63.50
21805;DHT22;11064;47.102;15.452;2023-06-19T10:32:59;30.90;61.60
21805;DHT22;11064;47.102;15.452;2023-06-19T10:35:24;31.10;63.50
21805;DHT22;11064;47.102;15.452;2023-06-19T10:37:50;31.50;63.50
21805;DHT22;11064;47.102;15.452;2023-06-19T10:40:17;31.70;61.60
21805;DHT22;11064;47.102;15.452;2023-06-19T10:42:43;31.50;60.10
21805;DHT22;11064;47.102;15.452;2023-06-19T10:45:11;31.80;61.70
21805;DHT22;11064;47.102;15.452;2023-06-19T10:47:44;32.00;58.90
21805;DHT22;11064;47.102;15.452;2023-06-19T10:50:14;32.00;59.10
21805;DHT22;11064;47.102;15.452;2023-06-19T10:52:44;32.40;56.70
21805;DHT22;11064;47.102;15.452;2023-06-19T10:55:14;32.90;55.80
21805;DHT22;11064;47.102;15.452;2023-06-19T10:57:50;32.90;55.60
21805;DHT22;11064;47.102;15.452;2023-06-19T11:00:30;32.90;56.40
21805;DHT22;11064;47.102;15.452;2023-06-19T11:02:58;32.60;55.90
21805;DHT22;11064;47.102;15.452;2023-06-19T11:05:25;32.10;54.90
21805;DHT22;11064;47.102;15.452;2023-06-19T11:07:56;32.40;56.30
21805;DHT22;11064;47.102;15.452;2023-06-19T11:10:28;32.60;58.90
21805;DHT22;11064;47.102;15.452;2023-06-19T11:12:56;33.10;55.90
21805;DHT22;11064;47.102;15.452;2023-06-19T11:15:30;33.80;55.20
21805;DHT22;11064;47.102;15.452;2023-06-19T11:17:57;34.40;55.00
21805;DHT22;11064;47.102;15.452;2023-06-19T11:20:23;34.80;54.30
21805;DHT22;11064;47.102;15.452;2023-06-19T11:22:58;34.90;50.60
21805;DHT22;11064;47.102;15.452;2023-06-19T11:25:34;35.00;52.00
21805;DHT22;11064;47.102;15.452;2023-06-19T11:28:00;35.30;51.60
21805;DHT22;11064;47.102;15.452;2023-06-19T11:30:33;35.30;52.60
21805;DHT22;11064;47.102;15.452;2023-06-19T11:33:00;35.10;51.40
21805;DHT22;11064;47.102;15.452;2023-06-19T11:35:35;35.00;47.50
21805;DHT22;11064;47.102;15.452;2023-06-19T11:38:02;34.90;49.90
21805;DHT22;11064;47.102;15.452;2023-06-19T11:40:28;34.80;50.50
21805;DHT22;11064;47.102;15.452;2023-06-19T11:42:55;34.90;53.40
21805;DHT22;11064;47.102;15.452;2023-06-19T11:45:21;34.90;54.40
21805;DHT22;11064;47.102;15.452;2023-06-19T11:47:48;34.60;50.10
21805;DHT22;11064;47.102;15.452;2023-06-19T11:50:15;33.90;50.30
21805;DHT22;11064;47.102;15.452;2023-06-19T11:52:43;33.90;51.50
21805;DHT22;11064;47.102;15.452;2023-06-19T11:55:13;34.00;53.50
21805;DHT22;11064;47.102;15.452;2023-06-19T11:57:41;34.40;52.80
21805;DHT22;11064;47.102;15.452;2023-06-19T12:00:16;34.50;54.00
21805;DHT22;11064;47.102;15.452;2023-06-19T12:02:44;33.90;52.40
21805;DHT22;11064;47.102;15.452;2023-06-19T12:05:12;34.20;53.90
21805;DHT22;11064;47.102;15.452;2023-06-19T12:07:38;34.20;54.70
21805;DHT22;11064;47.102;15.452;2023-06-19T12:10:04;34.10;54.70
21805;DHT22;11064;47.102;15.452;2023-06-19T12:12:36;34.20;54.70
21805;DHT22;11064;47.102;15.452;2023-06-19T12:15:05;34.10;53.10
21805;DHT22;11064;47.102;15.452;2023-06-19T12:17:31;34.30;54.70
21805;DHT22;11064;47.102;15.452;2023-06-19T12:19:57;34.30;56.10
21805;DHT22;11064;47.102;15.452;2023-06-19T12:22:22;34.60;54.90
21805;DHT22;11064;47.102;15.452;2023-06-19T12:24:48;34.50;52.90
21805;DHT22;11064;47.102;15.452;2023-06-19T12:27:14;34.60;47.80
21805;DHT22;11064;47.102;15.452;2023-06-19T12:29:40;33.80;51.10
21805;DHT22;11064;47.102;15.452;2023-06-19T12:32:06;33.90;53.00
21805;DHT22;11064;47.102;15.452;2023-06-19T12:34:32;33.60;49.60
21805;DHT22;11064;47.102;15.452;2023-06-19T12:36:58;34.00;52.90
21805;DHT22;11064;47.102;15.452;2023-06-19T12:39:23;33.70;52.20
21805;DHT22;11064;47.102;15.452;2023-06-19T12:41:50;34.00;54.80
21805;DHT22;11064;47.102;15.452;2023-06-19T12:44:16;34.10;51.20
21805;DHT22;11064;47.102;15.452;2023-06-19T12:46:42;33.80;54.10
21805;DHT22;11064;47.102;15.452;2023-06-19T12:49:08;34.10;52.90
21805;DHT22;11064;47.102;15.452;2023-06-19T12:51:35;34.50;51.70
21805;DHT22;11064;47.102;15.452;2023-06-19T12:54:00;34.50;52.90
21805;DHT22;11064;47.102;15.452;2023-06-19T12:56:26;33.40;53.00
21805;DHT22;11064;47.102;15.452;2023-06-19T12:58:52;33.30;53.40
21805;DHT22;11064;47.102;15.452;2023-06-19T13:01:18;32.20;56.10
21805;DHT22;11064;47.102;15.452;2023-06-19T13:03:44;31.80;57.00
21805;DHT22;11064;47.102;15.452;2023-06-19T13:06:09;30.50;57.80
21805;DHT22;11064;47.102;15.452;2023-06-19T13:08:35;29.50;60.90
21805;DHT22;11064;47.102;15.452;2023-06-19T13:11:01;29.80;62.80
21805;DHT22;11064;47.102;15.452;2023-06-19T13:13:27;29.90;61.20
21805;DHT22;11064;47.102;15.452;2023-06-19T13:15:52;29.60;62.20
21805;DHT22;11064;47.102;15.452;2023-06-19T13:18:18;29.50;64.50
21805;DHT22;11064;47.102;15.452;2023-06-19T13:20:45;29.50;64.70
21805;DHT22;11064;47.102;15.452;2023-06-19T13:23:14;29.30;64.80
21805;DHT22;11064;47.102;15.452;2023-06-19T13:25:40;29.20;61.90
21805;DHT22;11064;47.102;15.452;2023-06-19T13:28:06;29.30;64.10
21805;DHT22;11064;47.102;15.452;2023-06-19T13:30:32;29.40;62.90
21805;DHT22;11064;47.102;15.452;2023-06-19T13:32:57;29.50;64.70
21805;DHT22;11064;47.102;15.452;2023-06-19T13:35:23;29.20;62.00
21805;DHT22;11064;47.102;15.452;2023-06-19T13:37:49;29.40;65.50
21805;DHT22;11064;47.102;15.452;2023-06-19T13:40:15;29.70;64.40
21805;DHT22;11064;47.102;15.452;2023-06-19T13:42:40;30.10;64.10
21805;DHT22;11064;47.102;15.452;2023-06-19T13:45:07;30.30;59.60
21805;DHT22;11064;47.102;15.452;2023-06-19T13:47:33;30.20;59.10
21805;DHT22;11064;47.102;15.452;2023-06-19T13:49:58;29.90;60.80
21805;DHT22;11064;47.102;15.452;2023-06-19T13:52:25;30.10;61.10
21805;DHT22;11064;47.102;15.452;2023-06-19T13:54:51;29.90;59.60
21805;DHT22;11064;47.102;15.452;2023-06-19T13:57:17;29.80;59.70
21805;DHT22;11064;47.102;15.452;2023-06-19T13:59:42;29.70;61.30
21805;DHT22;11064;47.102;15.452;2023-06-19T14:02:08;29.60;62.10
21805;DHT22;11064;47.102;15.452;2023-06-19T14:04:36;29.30;63.80
21805;DHT22;11064;47.102;15.452;2023-06-19T14:07:01;29.70;64.40
21805;DHT22;11064;47.102;15.452;2023-06-19T14:09:27;30.00;62.40
21805;DHT22;11064;47.102;15.452;2023-06-19T14:11:53;30.10;59.60
21805;DHT22;11064;47.102;15.452;2023-06-19T14:14:19;30.00;59.60
21805;DHT22;11064;47.102;15.452;2023-06-19T14:16:45;29.90;61.00
21805;DHT22;11064;47.102;15.452;2023-06-19T14:19:11;29.80;61.30
21805;DHT22;11064;47.102;15.452;2023-06-19T14:21:36;30.00;61.30
21805;DHT22;11064;47.102;15.452;2023-06-19T14:24:02;29.90;60.90
21805;DHT22;11064;47.102;15.452;2023-06-19T14:26:28;30.10;61.30
21805;DHT22;11064;47.102;15.452;2023-06-19T14:28:54;30.00;60.00
21805;DHT22;11064;47.102;15.452;2023-06-19T14:31:23;30.40;60.50
21805;DHT22;11064;47.102;15.452;2023-06-19T14:33:49;29.90;59.30
21805;DHT22;11064;47.102;15.452;2023-06-19T14:36:15;30.30;60.50
21805;DHT22;11064;47.102;15.452;2023-06-19T14:38:41;30.00;60.00
21805;DHT22;11064;47.102;15.452;2023-06-19T14:41:07;30.00;58.20
21805;DHT22;11064;47.102;15.452;2023-06-19T14:43:33;30.10;58.50
21805;DHT22;11064;47.102;15.452;2023-06-19T14:46:00;30.00;58.40
21805;DHT22;11064;47.102;15.452;2023-06-19T14:48:26;29.40;60.00
21805;DHT22;11064;47.102;15.452;2023-06-19T14:50:52;29.60;60.30
21805;DHT22;11064;47.102;15.452;2023-06-19T14:53:18;30.10;60.00
21805;DHT22;11064;47.102;15.452;2023-06-19T14:55:44;30.30;60.20
21805;DHT22;11064;47.102;15.452;2023-06-19T14:58:14;30.80;59.00
21805;DHT22;11064;47.102;15.452;2023-06-19T15:00:41;31.00;57.60
21805;DHT22;11064;47.102;15.452;2023-06-19T15:03:07;30.90;58.90
21805;DHT22;11064;47.102;15.452;2023-06-19T15:05:33;30.60;57.60
21805;DHT22;11064;47.102;15.452;2023-06-19T15:07:59;29.80;59.80
21805;DHT22;11064;47.102;15.452;2023-06-19T15:10:29;29.90;60.10
21805;DHT22;11064;47.102;15.452;2023-06-19T15:12:55;30.00;60.30
21805;DHT22;11064;47.102;15.452;2023-06-19T15:15:21;30.40;60.20
21805;DHT22;11064;47.102;15.452;2023-06-19T15:17:46;30.70;59.20
21805;DHT22;11064;47.102;15.452;2023-06-19T15:20:12;30.80;59.70
21805;DHT22;11064;47.102;15.452;2023-06-19T15:22:39;30.80;59.30
21805;DHT22;11064;47.102;15.452;2023-06-19T15:25:05;30.70;59.30
21805;DHT22;11064;47.102;15.452;2023-06-19T15:27:31;30.70;59.20
21805;DHT22;11064;47.102;15.452;2023-06-19T15:29:57;30.40;59.10
21805;DHT22;11064;47.102;15.452;2023-06-19T15:32:23;30.80;58.80
21805;DHT22;11064;47.102;15.452;2023-06-19T15:34:49;30.90;57.70
21805;DHT22;11064;47.102;15.452;2023-06-19T15:37:14;31.00;58.40
21805;DHT22;11064;47.102;15.452;2023-06-19T15:39:42;30.70;59.50
21805;DHT22;11064;47.102;15.452;2023-06-19T15:42:08;30.50;59.00
21805;DHT22;11064;47.102;15.452;2023-06-19T15:44:33;30.60;58.70
21805;DHT22;11064;47.102;15.452;2023-06-19T15:46:59;31.20;56.70
21805;DHT22;11064;47.102;15.452;2023-06-19T15:49:25;31.60;56.10
21805;DHT22;11064;47.102;15.452;2023-06-19T15:51:51;30.70;56.40
21805;DHT22;11064;47.102;15.452;2023-06-19T15:54:17;29.90;59.00
21805;DHT22;11064;47.102;15.452;2023-06-19T15:56:42;29.00;61.60
21805;DHT22;11064;47.102;15.452;2023-06-19T15:59:10;28.50;63.40
21805;DHT22;11064;47.102;15.452;2023-06-19T16:01:36;28.00;65.50
21805;DHT22;11064;47.102;15.452;2023-06-19T16:04:02;27.50;66.20
21805;DHT22;11064;47.102;15.452;2023-06-19T16:06:28;27.10;68.10
21805;DHT22;11064;47.102;15.452;2023-06-19T16:08:53;26.90;68.70
21805;DHT22;11064;47.102;15.452;2023-06-19T16:11:23;26.70;70.00
21805;DHT22;11064;47.102;15.452;2023-06-19T16:13:49;26.40;68.80
21805;DHT22;11064;47.102;15.452;2023-06-19T16:16:14;26.30;69.90
21805;DHT22;11064;47.102;15.452;2023-06-19T16:18:41;26.30;70.80
21805;DHT22;11064;47.102;15.452;2023-06-19T16:21:07;26.40;70.90
21805;DHT22;11064;47.102;15.452;2023-06-19T16:23:32;26.50;70.70
21805;DHT22;11064;47.102;15.452;2023-06-19T16:25:58;26.70;69.80
21805;DHT22;11064;47.102;15.452;2023-06-19T16:28:24;27.20;69.50
21805;DHT22;11064;47.102;15.452;2023-06-19T16:30:50;27.80;67.90
21805;DHT22;11064;47.102;15.452;2023-06-19T16:33:17;28.40;64.40
21805;DHT22;11064;47.102;15.452;2023-06-19T16:35:42;29.20;64.00
21805;DHT22;11064;47.102;15.452;2023-06-19T16:38:08;30.20;61.90
21805;DHT22;11064;47.102;15.452;2023-06-19T16:40:34;31.00;58.10
21805;DHT22;11064;47.102;15.452;2023-06-19T16:43:00;31.40;56.00
21805;DHT22;11064;47.102;15.452;2023-06-19T16:45:25;31.30;57.30
21805;DHT22;11064;47.102;15.452;2023-06-19T16:47:54;31.10;57.40
21805;DHT22;11064;47.102;15.452;2023-06-19T16:50:20;30.80;59.30
21805;DHT22;11064;47.102;15.452;2023-06-19T16:52:46;30.30;58.70
21805;DHT22;11064;47.102;15.452;2023-06-19T16:55:13;29.70;60.10
21805;DHT22;11064;47.102;15.452;2023-06-19T16:57:39;29.40;62.20
21805;DHT22;11064;47.102;15.452;2023-06-19T17:00:06;29.10;62.20
21805;DHT22;11064;47.102;15.452;2023-06-19T17:02:32;28.90;63.20
21805;DHT22;11064;47.102;15.452;2023-06-19T17:04:58;28.30;63.70
21805;DHT22;11064;47.102;15.452;2023-06-19T17:07:24;28.00;65.80
21805;DHT22;11064;47.102;15.452;2023-06-19T17:09:50;27.50;66.50
21805;DHT22;11064;47.102;15.452;2023-06-19T17:12:16;27.30;68.50
21805;DHT22;11064;47.102;15.452;2023-06-19T17:14:42;27.10;67.80
21805;DHT22;11064;47.102;15.452;2023-06-19T17:17:08;26.90;68.50
21805;DHT22;11064;47.102;15.452;2023-06-19T17:19:34;26.50;70.10
21805;DHT22;11064;47.102;15.452;2023-06-19T17:21:59;26.30;71.40
21805;DHT22;11064;47.102;15.452;2023-06-19T17:24:25;26.10;71.60
21805;DHT22;11064;47.102;15.452;2023-06-19T17:26:51;26.00;72.20
21805;DHT22;11064;47.102;15.452;2023-06-19T17:29:26;25.80;73.30
21805;DHT22;11064;47.102;15.452;2023-06-19T17:31:55;25.80;73.60
21805;DHT22;11064;47.102;15.452;2023-06-19T17:34:22;25.50;72.60
21805;DHT22;11064;47.102;15.452;2023-06-19T17:36:48;25.50;73.80
21805;DHT22;11064;47.102;15.452;2023-06-19T17:39:14;25.40;74.00
21805;DHT22;11064;47.102;15.452;2023-06-19T17:41:41;25.30;75.10
21805;DHT22;11064;47.102;15.452;2023-06-19T17:44:07;25.10;74.40
21805;DHT22;11064;47.102;15.452;2023-06-19T17:46:32;25.00;75.90
21805;DHT22;11064;47.102;15.452;2023-06-19T17:48:58;24.90;75.90
21805;DHT22;11064;47.102;15.452;2023-06-19T17:51:24;24.80;76.90
21805;DHT22;11064;47.102;15.452;2023-06-19T17:53:50;24.70;77.00
21805;DHT22;11064;47.102;15.452;2023-06-19T17:56:17;24.60;77.50
21805;DHT22;11064;47.102;15.452;2023-06-19T17:58:43;24.50;77.90
21805;DHT22;11064;47.102;15.452;2023-06-19T18:01:09;24.40;77.20
21805;DHT22;11064;47.102;15.452;2023-06-19T18:03:35;24.30;78.00
21805;DHT22;11064;47.102;15.452;2023-06-19T18:06:01;24.30;78.80
21805;DHT22;11064;47.102;15.452;2023-06-19T18:08:27;24.20;77.50
21805;DHT22;11064;47.102;15.452;2023-06-19T18:10:53;24.00;77.80
21805;DHT22;11064;47.102;15.452;2023-06-19T18:13:18;24.00;78.60
21805;DHT22;11064;47.102;15.452;2023-06-19T18:15:44;23.90;79.70
21805;DHT22;11064;47.102;15.452;2023-06-19T18:18:10;23.80;79.60
21805;DHT22;11064;47.102;15.452;2023-06-19T18:20:36;23.80;79.70
21805;DHT22;11064;47.102;15.452;2023-06-19T18:23:02;23.60;79.50
21805;DHT22;11064;47.102;15.452;2023-06-19T18:25:28;23.50;82.30
21805;DHT22;11064;47.102;15.452;2023-06-19T18:27:54;23.40;79.90
21805;DHT22;11064;47.102;15.452;2023-06-19T18:30:20;23.40;80.80
21805;DHT22;11064;47.102;15.452;2023-06-19T18:32:46;23.30;81.50
21805;DHT22;11064;47.102;15.452;2023-06-19T18:35:11;23.20;81.40
21805;DHT22;11064;47.102;15.452;2023-06-19T18:37:38;23.10;81.60
21805;DHT22;11064;47.102;15.452;2023-06-19T18:40:04;23.00;81.80
21805;DHT22;11064;47.102;15.452;2023-06-19T18:42:30;23.00;81.00
21805;DHT22;11064;47.102;15.452;2023-06-19T18:44:57;22.90;81.40
21805;DHT22;11064;47.102;15.452;2023-06-19T18:47:22;22.80;81.70
21805;DHT22;11064;47.102;15.452;2023-06-19T18:49:48;22.80;82.30
21805;DHT22;11064;47.102;15.452;2023-06-19T18:52:15;22.70;83.10
21805;DHT22;11064;47.102;15.452;2023-06-19T18:54:41;22.60;83.80
21805;DHT22;11064;47.102;15.452;2023-06-19T18:57:07;22.50;84.50
21805;DHT22;11064;47.102;15.452;2023-06-19T18:59:33;22.40;85.10
21805;DHT22;11064;47.102;15.452;2023-06-19T19:01:59;22.40;85.30
21805;DHT22;11064;47.102;15.452;2023-06-19T19:04:25;22.20;87.60
21805;DHT22;11064;47.102;15.452;2023-06-19T19:06:50;22.20;87.90
21805;DHT22;11064;47.102;15.452;2023-06-19T19:09:16;22.00;88.70
21805;DHT22;11064;47.102;15.452;2023-06-19T19:11:42;21.90;88.90
21805;DHT22;11064;47.102;15.452;2023-06-19T19:14:08;21.90;88.20
21805;DHT22;11064;47.102;15.452;2023-06-19T19:16:34;21.80;89.00